sensor_id;sensor_type;location;lat;lon;timestamp;pressure;altitude;pressure_sealevel;temperature;humidity
39739;BME280;25422;48.286;8.484;2023-05-08T00:01:31;94363.69;;;11.18;100.00
39739;BME280;25422;48.286;8.484;2023-05-08T00:03:57;94353.06;;;11.11;100.00
39739;BME280;25422;48.286;8.484;2023-05-08T00:06:22;94355.38;;;11.06;100.00
39739;BME280;25422;48.286;8.484;2023-05-08T00:08:48;94354.72;;;11.04;100.00
39739;BME280;25422;48.286;8.484;2023-05-08T00:11:13;94360.09;;;11.03;100.00
39739;BME280;25422;48.286;8.484;2023-05-08T00:13:38;94365.50;;;11.01;100.00
39739;BME280;25422;48.286;8.484;2023-05-08T00:16:06;94356.06;;;11.00;100.00
39739;BME280;25422;48.286;8.484;2023-05-08T00:18:34;94367.97;;;11.03;100.00
39739;BME280;25422;48.286;8.484;2023-05-08T00:21:00;94360.78;;;11.05;100.00
39739;BME280;25422;48.286;8.484;2023-05-08T00:23:25;94364.84;;;11.07;100.00
39739;BME280;25422;48.286;8.484;2023-05-08T00:25:51;94361.25;;;11.08;100.00
39739;BME280;25422;48.286;8.484;2023-05-08T00:28:16;94357.63;;;11.09;100.00
39739;BME280;25422;48.286;8.484;2023-05-08T00:30:41;94359.44;;;11.09;100.00
39739;BME280;25422;48.286;8.484;2023-05-08T00:33:08;94355.84;;;11.10;100.00
39739;BME280;25422;48.286;8.484;2023-05-08T00:35:33;94358.31;;;11.11;100.00
39739;BME280;25422;48.286;8.484;2023-05-08T00:37:59;94360.56;;;11.14;100.00
39739;BME280;25422;48.286;8.484;2023-05-08T00:40:25;94361.72;;;11.12;100.00
39739;BME280;25422;48.286;8.484;2023-05-08T00:42:51;94358.66;;;11.08;100.00
39739;BME280;25422;48.286;8.484;2023-05-08T00:45:16;94354.38;;;11.07;100.00
39739;BME280;25422;48.286;8.484;2023-05-08T00:47:41;94356.34;;;11.05;100.00
39739;BME280;25422;48.286;8.484;2023-05-08T00:50:07;94356.06;;;11.00;100.00
39739;BME280;25422;48.286;8.484;2023-05-08T00:52:33;94370.47;;;10.96;100.00
39739;BME280;25422;48.286;8.484;2023-05-08T00:55:01;94365.88;;;10.90;100.00
39739;BME280;25422;48.286;8.484;2023-05-08T00:57:29;94357.34;;;10.88;100.00
39739;BME280;25422;48.286;8.484;2023-05-08T00:59:59;94369.81;;;10.86;100.00
39739;BME280;25422;48.286;8.484;2023-05-08T01:02:24;94368.00;;;10.86;100.00
39739;BME280;25422;48.286;8.484;2023-05-08T01:04:51;94365.22;;;10.88;100.00
39739;BME280;25422;48.286;8.484;2023-05-08T01:07:18;94372.59;;;10.92;100.00
39739;BME280;25422;48.286;8.484;2023-05-08T01:09:43;94375.19;;;10.92;100.00
39739;BME280;25422;48.286;8.484;2023-05-08T01:15:12;94381.41;;;10.91;100.00
39739;BME280;25422;48.286;8.484;2023-05-08T01:18:03;94378.31;;;10.88;100.00
39739;BME280;25422;48.286;8.484;2023-05-08T01:20:39;94384.53;;;10.87;100.00
39739;BME280;25422;48.286;8.484;2023-05-08T01:23:25;94388.13;;;10.86;100.00
39739;BME280;25422;48.286;8.484;2023-05-08T01:37:37;94378.00;;;10.83;100.00
39739;BME280;25422;48.286;8.484;2023-05-08T01:40:11;94380.63;;;10.83;100.00
39739;BME280;25422;48.286;8.484;2023-05-08T01:42:52;94378.97;;;10.82;100.00
39739;BME280;25422;48.286;8.484;2023-05-08T01:45:30;94376.19;;;10.83;100.00
39739;BME280;25422;48.286;8.484;2023-05-08T01:48:08;94386.84;;;10.82;100.00
39739;BME280;25422;48.286;8.484;2023-05-08T01:50:42;94388.47;;;10.83;100.00
39739;BME280;25422;48.286;8.484;2023-05-08T01:53:16;94386.00;;;10.81;100.00
39739;BME280;25422;48.286;8.484;2023-05-08T01:55:46;94384.84;;;10.84;100.00
39739;BME280;25422;48.286;8.484;2023-05-08T01:58:13;94394.34;;;10.85;100.00
39739;BME280;25422;48.286;8.484;2023-05-08T02:00:40;94384.53;;;10.87;100.00
39739;BME280;25422;48.286;8.484;2023-05-08T02:03:08;94386.16;;;10.88;100.00
39739;BME280;25422;48.286;8.484;2023-05-08T02:05:38;94384.72;;;10.85;100.00
39739;BME280;25422;48.286;8.484;2023-05-08T02:08:07;94384.53;;;10.87;100.00
39739;BME280;25422;48.286;8.484;2023-05-08T02:10:36;94390.09;;;10.84;100.00
39739;BME280;25422;48.286;8.484;2023-05-08T02:13:03;94386.66;;;10.83;100.00
39739;BME280;25422;48.286;8.484;2023-05-08T02:15:29;94390.25;;;10.82;100.00
39739;BME280;25422;48.286;8.484;2023-05-08T02:17:56;94387.63;;;10.82;100.00
39739;BME280;25422;48.286;8.484;2023-05-08T02:20:23;94392.88;;;10.82;100.00
39739;BME280;25422;48.286;8.484;2023-05-08T02:22:50;94387.81;;;10.80;100.00
39739;BME280;25422;48.286;8.484;2023-05-08T02:25:16;94385.03;;;10.82;100.00
39739;BME280;25422;48.286;8.484;2023-05-08T02:27:45;94395.66;;;10.80;100.00
39739;BME280;25422;48.286;8.484;2023-05-08T02:30:13;94390.59;;;10.79;100.00
39739;BME280;25422;48.286;8.484;2023-05-08T02:32:41;94389.63;;;10.80;100.00
39739;BME280;25422;48.286;8.484;2023-05-08T02:35:09;94386.16;;;10.79;100.00
39739;BME280;25422;48.286;8.484;2023-05-08T02:37:37;94386.16;;;10.79;100.00
39739;BME280;25422;48.286;8.484;2023-05-08T02:40:03;94379.16;;;10.80;100.00
39739;BME280;25422;48.286;8.484;2023-05-08T02:42:31;94380.63;;;10.83;100.00
39739;BME280;25422;48.286;8.484;2023-05-08T02:44:57;94375.38;;;10.83;100.00
39739;BME280;25422;48.286;8.484;2023-05-08T02:47:26;94383.25;;;10.83;100.00
39739;BME280;25422;48.286;8.484;2023-05-08T02:53:02;94381.25;;;10.85;100.00
39739;BME280;25422;48.286;8.484;2023-05-08T02:55:44;94383.06;;;10.84;100.00
39739;BME280;25422;48.286;8.484;2023-05-08T02:58:21;94384.03;;;10.83;100.00
39739;BME280;25422;48.286;8.484;2023-05-08T03:01:03;94386.31;;;10.86;100.00
39739;BME280;25422;48.286;8.484;2023-05-08T03:03:42;94388.13;;;10.86;100.00
39739;BME280;25422;48.286;8.484;2023-05-08T03:06:17;94385.50;;;10.94;100.00
39739;BME280;25422;48.286;8.484;2023-05-08T03:08:44;94391.41;;;10.96;100.00
39739;BME280;25422;48.286;8.484;2023-05-08T03:11:14;94384.19;;;10.98;100.00
39739;BME280;25422;48.286;8.484;2023-05-08T03:13:41;94386.47;;;10.93;100.00
39739;BME280;25422;48.286;8.484;2023-05-08T03:16:13;94386.16;;;10.96;100.00
39739;BME280;25422;48.286;8.484;2023-05-08T03:18:46;94386.31;;;10.94;100.00
39739;BME280;25422;48.286;8.484;2023-05-08T03:21:17;94388.78;;;10.88;100.00
39739;BME280;25422;48.286;8.484;2023-05-08T03:23:45;94390.75;;;10.86;100.00
39739;BME280;25422;48.286;8.484;2023-05-08T03:26:15;94392.69;;;10.84;100.00
39739;BME280;25422;48.286;8.484;2023-05-08T03:28:46;94384.22;;;10.82;100.00
39739;BME280;25422;48.286;8.484;2023-05-08T03:31:14;94391.22;;;10.81;100.00
39739;BME280;25422;48.286;8.484;2023-05-08T03:33:42;94382.75;;;10.79;100.00
39739;BME280;25422;48.286;8.484;2023-05-08T03:36:08;94382.56;;;10.80;100.00
39739;BME280;25422;48.286;8.484;2023-05-08T03:38:34;94378.81;;;10.83;100.00
39739;BME280;25422;48.286;8.484;2023-05-08T03:41:00;94378.31;;;10.88;100.00
39739;BME280;25422;48.286;8.484;2023-05-08T03:43:26;94384.53;;;10.87;100.00
39739;BME280;25422;48.286;8.484;2023-05-08T03:45:54;94381.25;;;10.93;100.00
39739;BME280;25422;48.286;8.484;2023-05-08T03:48:21;94392.38;;;10.95;100.00
39739;BME280;25422;48.286;8.484;2023-05-08T03:50:48;94388.28;;;10.92;100.00
39739;BME280;25422;48.286;8.484;2023-05-08T03:53:13;94384.19;;;10.90;100.00
39739;BME280;25422;48.286;8.484;2023-05-08T03:55:39;94396.47;;;10.89;100.00
39739;BME280;25422;48.286;8.484;2023-05-08T03:58:22;94386.00;;;10.89;100.00
39739;BME280;25422;48.286;8.484;2023-05-08T04:00:58;94391.88;;;10.91;100.00
39739;BME280;25422;48.286;8.484;2023-05-08T04:06:30;94396.94;;;10.93;100.00
39739;BME280;25422;48.286;8.484;2023-05-08T04:09:04;94401.38;;;10.92;100.00
39739;BME280;25422;48.286;8.484;2023-05-08T04:11:40;94399.25;;;10.96;100.00
39739;BME280;25422;48.286;8.484;2023-05-08T04:14:09;94400.53;;;10.92;100.00
39739;BME280;25422;48.286;8.484;2023-05-08T04:16:39;94398.09;;;10.90;100.00
39739;BME280;25422;48.286;8.484;2023-05-08T04:19:14;94401.72;;;10.89;100.00
39739;BME280;25422;48.286;8.484;2023-05-08T04:21:43;94389.78;;;10.87;100.00
39739;BME280;25422;48.286;8.484;2023-05-08T04:24:12;94394.19;;;10.86;100.00
39739;BME280;25422;48.286;8.484;2023-05-08T04:26:40;94395.97;;;10.86;100.00
39739;BME280;25422;48.286;8.484;2023-05-08T04:29:06;94406.44;;;10.86;100.00
39739;BME280;25422;48.286;8.484;2023-05-08T04:31:33;94403.16;;;10.84;100.00
39739;BME280;25422;48.286;8.484;2023-05-08T04:33:59;94402.03;;;10.86;100.00
39739;BME280;25422;48.286;8.484;2023-05-08T04:36:24;94410.38;;;10.90;100.00
39739;BME280;25422;48.286;8.484;2023-05-08T04:38:53;94418.72;;;10.93;100.00
39739;BME280;25422;48.286;8.484;2023-05-08T04:41:19;94416.56;;;11.05;100.00
39739;BME280;25422;48.286;8.484;2023-05-08T04:43:46;94423.25;;;11.16;100.00
39739;BME280;25422;48.286;8.484;2023-05-08T04:46:11;94418.84;;;11.17;100.00
39739;BME280;25422;48.286;8.484;2023-05-08T04:48:37;94424.09;;;11.17;100.00
39739;BME280;25422;48.286;8.484;2023-05-08T04:51:03;94428.31;;;11.18;100.00
39739;BME280;25422;48.286;8.484;2023-05-08T04:53:29;94429.31;;;11.17;100.00
39739;BME280;25422;48.286;8.484;2023-05-08T04:55:54;94429.63;;;11.13;100.00
39739;BME280;25422;48.286;8.484;2023-05-08T04:58:21;94431.94;;;11.17;100.00
39739;BME280;25422;48.286;8.484;2023-05-08T05:00:48;94431.94;;;11.17;100.00
39739;BME280;25422;48.286;8.484;2023-05-08T05:03:13;94436.16;;;11.18;100.00
39739;BME280;25422;48.286;8.484;2023-05-08T05:05:39;94432.91;;;11.16;100.00
39739;BME280;25422;48.286;8.484;2023-05-08T05:08:05;94433.72;;;11.16;100.00
39739;BME280;25422;48.286;8.484;2023-05-08T05:10:31;94431.59;;;11.20;100.00
39739;BME280;25422;48.286;8.484;2023-05-08T05:12:56;94431.09;;;11.24;100.00
39739;BME280;25422;48.286;8.484;2023-05-08T05:15:21;94435.16;;;11.27;100.00
39739;BME280;25422;48.286;8.484;2023-05-08T05:17:47;94431.75;;;11.26;100.00
39739;BME280;25422;48.286;8.484;2023-05-08T05:20:14;94435.50;;;11.24;100.00
39739;BME280;25422;48.286;8.484;2023-05-08T05:22:39;94431.56;;;11.28;100.00
39739;BME280;25422;48.286;8.484;2023-05-08T05:25:07;94434.88;;;11.30;100.00
39739;BME280;25422;48.286;8.484;2023-05-08T05:27:35;94436.00;;;11.36;100.00
39739;BME280;25422;48.286;8.484;2023-05-08T05:30:03;94435.16;;;11.35;100.00
39739;BME280;25422;48.286;8.484;2023-05-08T05:32:29;94430.56;;;11.37;100.00
39739;BME280;25422;48.286;8.484;2023-05-08T05:34:55;94430.91;;;11.34;100.00
39739;BME280;25422;48.286;8.484;2023-05-08T05:37:21;94433.84;;;11.31;100.00
39739;BME280;25422;48.286;8.484;2023-05-08T05:39:47;94437.13;;;11.33;100.00
39739;BME280;25422;48.286;8.484;2023-05-08T05:42:13;94441.84;;;11.38;100.00
39739;BME280;25422;48.286;8.484;2023-05-08T05:44:39;94444.78;;;11.51;100.00
39739;BME280;25422;48.286;8.484;2023-05-08T05:47:05;94441.28;;;11.67;100.00
39739;BME280;25422;48.286;8.484;2023-05-08T05:49:34;94446.09;;;11.87;100.00
39739;BME280;25422;48.286;8.484;2023-05-08T05:51:59;94446.41;;;12.00;100.00
39739;BME280;25422;48.286;8.484;2023-05-08T05:54:25;94450.72;;;12.24;100.00
39739;BME280;25422;48.286;8.484;2023-05-08T05:56:51;94446.00;;;12.20;100.00
39739;BME280;25422;48.286;8.484;2023-05-08T05:59:17;94438.31;;;12.41;100.00
39739;BME280;25422;48.286;8.484;2023-05-08T06:01:42;94444.38;;;12.65;100.00
39739;BME280;25422;48.286;8.484;2023-05-08T06:04:08;94437.03;;;12.84;100.00
39739;BME280;25422;48.286;8.484;2023-05-08T06:06:33;94441.84;;;13.63;100.00
39739;BME280;25422;48.286;8.484;2023-05-08T06:08:59;94431.00;;;13.66;100.00
39739;BME280;25422;48.286;8.484;2023-05-08T06:11:24;94437.94;;;13.89;100.00
39739;BME280;25422;48.286;8.484;2023-05-08T06:13:50;94442.78;;;14.58;100.00
39739;BME280;25422;48.286;8.484;2023-05-08T06:16:15;94438.94;;;15.04;100.00
39739;BME280;25422;48.286;8.484;2023-05-08T06:18:41;94438.53;;;14.21;100.00
39739;BME280;25422;48.286;8.484;2023-05-08T06:21:06;94439.22;;;14.29;100.00
39739;BME280;25422;48.286;8.484;2023-05-08T06:23:32;94439.13;;;14.59;100.00
39739;BME280;25422;48.286;8.484;2023-05-08T06:25:57;94433.75;;;14.67;100.00
39739;BME280;25422;48.286;8.484;2023-05-08T06:28:23;94437.59;;;14.65;100.00
39739;BME280;25422;48.286;8.484;2023-05-08T06:30:50;94437.50;;;14.58;100.00
39739;BME280;25422;48.286;8.484;2023-05-08T06:33:16;94439.47;;;14.34;100.00
39739;BME280;25422;48.286;8.484;2023-05-08T06:35:45;94439.84;;;14.31;100.00
39739;BME280;25422;48.286;8.484;2023-05-08T06:38:11;94436.44;;;14.16;100.00
39739;BME280;25422;48.286;8.484;2023-05-08T06:40:40;94442.63;;;14.08;100.00
39739;BME280;25422;48.286;8.484;2023-05-08T06:43:06;94442.59;;;14.23;100.00
39739;BME280;25422;48.286;8.484;2023-05-08T06:45:31;94443.47;;;14.30;100.00
39739;BME280;25422;48.286;8.484;2023-05-08T06:47:57;94436.03;;;14.34;100.00
39739;BME280;25422;48.286;8.484;2023-05-08T06:50:22;94431.69;;;14.26;100.00
39739;BME280;25422;48.286;8.484;2023-05-08T06:52:47;94437.59;;;14.28;100.00
39739;BME280;25422;48.286;8.484;2023-05-08T06:55:13;94433.34;;;14.64;100.00
39739;BME280;25422;48.286;8.484;2023-05-08T06:57:39;94434.19;;;14.71;100.00
39739;BME280;25422;48.286;8.484;2023-05-08T07:00:04;94438.94;;;14.82;100.00
39739;BME280;25422;48.286;8.484;2023-05-08T07:02:30;94442.81;;;14.80;100.00
39739;BME280;25422;48.286;8.484;2023-05-08T07:04:56;94437.09;;;14.76;100.00
39739;BME280;25422;48.286;8.484;2023-05-08T07:07:21;94438.09;;;14.75;100.00
39739;BME280;25422;48.286;8.484;2023-05-08T07:09:46;94443.06;;;14.48;100.00
39739;BME280;25422;48.286;8.484;2023-05-08T07:12:12;94444.47;;;14.66;100.00
39739;BME280;25422;48.286;8.484;2023-05-08T07:14:37;94449.75;;;14.66;100.00
39739;BME280;25422;48.286;8.484;2023-05-08T07:17:05;94445.13;;;14.68;100.00
39739;BME280;25422;48.286;8.484;2023-05-08T07:19:32;94445.75;;;14.55;100.00
39739;BME280;25422;48.286;8.484;2023-05-08T07:21:57;94443.31;;;14.54;100.00
39739;BME280;25422;48.286;8.484;2023-05-08T07:24:22;94448.97;;;14.50;100.00
39739;BME280;25422;48.286;8.484;2023-05-08T07:26:49;94446.78;;;14.76;100.00
39739;BME280;25422;48.286;8.484;2023-05-08T07:29:14;94452.03;;;14.69;100.00
39739;BME280;25422;48.286;8.484;2023-05-08T07:31:39;94452.63;;;14.71;100.00
39739;BME280;25422;48.286;8.484;2023-05-08T07:34:05;94462.66;;;14.82;100.00
39739;BME280;25422;48.286;8.484;2023-05-08T07:36:31;94458.63;;;15.08;100.00
39739;BME280;25422;48.286;8.484;2023-05-08T07:38:56;94454.50;;;14.99;100.00
39739;BME280;25422;48.286;8.484;2023-05-08T07:41:22;94459.50;;;14.50;100.00
39739;BME280;25422;48.286;8.484;2023-05-08T07:43:47;94456.28;;;14.19;100.00
39739;BME280;25422;48.286;8.484;2023-05-08T07:46:16;94456.97;;;14.06;100.00
39739;BME280;25422;48.286;8.484;2023-05-08T07:48:42;94459.56;;;14.21;100.00
39739;BME280;25422;48.286;8.484;2023-05-08T07:51:08;94458.63;;;13.92;100.00
39739;BME280;25422;48.286;8.484;2023-05-08T07:53:35;94459.81;;;13.74;100.00
39739;BME280;25422;48.286;8.484;2023-05-08T07:56:01;94461.72;;;13.65;100.00
39739;BME280;25422;48.286;8.484;2023-05-08T07:58:26;94463.53;;;13.65;100.00
39739;BME280;25422;48.286;8.484;2023-05-08T08:00:52;94467.34;;;13.77;100.00
39739;BME280;25422;48.286;8.484;2023-05-08T08:03:18;94460.00;;;13.88;100.00
39739;BME280;25422;48.286;8.484;2023-05-08T08:05:43;94470.41;;;13.96;100.00
39739;BME280;25422;48.286;8.484;2023-05-08T08:08:09;94468.13;;;13.78;100.00
39739;BME280;25422;48.286;8.484;2023-05-08T08:10:34;94467.41;;;13.99;100.00
39739;BME280;25422;48.286;8.484;2023-05-08T08:13:00;94469.38;;;14.12;100.00
39739;BME280;25422;48.286;8.484;2023-05-08T08:15:26;94471.81;;;14.28;100.00
39739;BME280;25422;48.286;8.484;2023-05-08T08:17:53;94469.16;;;14.43;100.00
39739;BME280;25422;48.286;8.484;2023-05-08T08:20:18;94464.94;;;14.49;100.00
39739;BME280;25422;48.286;8.484;2023-05-08T08:22:44;94463.88;;;14.80;100.00
39739;BME280;25422;48.286;8.484;2023-05-08T08:25:09;94461.63;;;14.62;100.00
39739;BME280;25422;48.286;8.484;2023-05-08T08:27:35;94462.47;;;14.62;100.00
39739;BME280;25422;48.286;8.484;2023-05-08T08:30:00;94461.25;;;15.08;100.00
39739;BME280;25422;48.286;8.484;2023-05-08T08:32:26;94462.72;;;15.39;100.00
39739;BME280;25422;48.286;8.484;2023-05-08T08:34:51;94458.00;;;15.91;100.00
39739;BME280;25422;48.286;8.484;2023-05-08T08:37:17;94455.06;;;16.21;100.00
39739;BME280;25422;48.286;8.484;2023-05-08T08:39:42;94461.63;;;16.45;100.00
39739;BME280;25422;48.286;8.484;2023-05-08T08:42:08;94449.81;;;16.34;100.00
39739;BME280;25422;48.286;8.484;2023-05-08T08:44:33;94454.19;;;16.07;100.00
39739;BME280;25422;48.286;8.484;2023-05-08T08:46:59;94459.22;;;16.50;100.00
39739;BME280;25422;48.286;8.484;2023-05-08T08:49:30;94458.88;;;16.87;100.00
39739;BME280;25422;48.286;8.484;2023-05-08T08:52:05;94456.91;;;16.96;100.00
39739;BME280;25422;48.286;8.484;2023-05-08T08:54:32;94458.13;;;16.93;100.00
39739;BME280;25422;48.286;8.484;2023-05-08T08:57:05;94464.50;;;16.50;100.00
39739;BME280;25422;48.286;8.484;2023-05-08T08:59:36;94452.78;;;16.80;100.00
39739;BME280;25422;48.286;8.484;2023-05-08T09:02:08;94457.66;;;16.76;100.00
39739;BME280;25422;48.286;8.484;2023-05-08T09:04:36;94454.81;;;17.72;100.00
39739;BME280;25422;48.286;8.484;2023-05-08T09:07:03;94464.81;;;17.23;100.00
39739;BME280;25422;48.286;8.484;2023-05-08T09:09:30;94466.25;;;17.18;100.00
39739;BME280;25422;48.286;8.484;2023-05-08T09:11:58;94448.56;;;17.46;100.00
39739;BME280;25422;48.286;8.484;2023-05-08T09:14:24;94452.34;;;17.97;100.00
39739;BME280;25422;48.286;8.484;2023-05-08T09:16:52;94448.88;;;18.80;100.00
39739;BME280;25422;48.286;8.484;2023-05-08T09:19:17;94453.44;;;18.28;100.00
39739;BME280;25422;48.286;8.484;2023-05-08T09:21:43;94447.34;;;18.27;100.00
39739;BME280;25422;48.286;8.484;2023-05-08T09:24:09;94448.25;;;17.94;100.00
39739;BME280;25422;48.286;8.484;2023-05-08T09:26:37;94450.66;;;18.09;100.00
39739;BME280;25422;48.286;8.484;2023-05-08T09:29:17;94446.34;;;19.24;100.00
39739;BME280;25422;48.286;8.484;2023-05-08T09:31:48;94446.75;;;19.28;100.00
39739;BME280;25422;48.286;8.484;2023-05-08T09:34:24;94457.47;;;18.37;100.00
39739;BME280;25422;48.286;8.484;2023-05-08T09:36:55;94450.75;;;17.69;100.00
39739;BME280;25422;48.286;8.484;2023-05-08T09:39:34;94457.97;;;18.20;100.00
39739;BME280;25422;48.286;8.484;2023-05-08T09:42:02;94454.72;;;18.64;100.00
39739;BME280;25422;48.286;8.484;2023-05-08T09:44:51;94454.44;;;18.72;100.00
39739;BME280;25422;48.286;8.484;2023-05-08T09:47:21;94453.69;;;18.58;100.00
39739;BME280;25422;48.286;8.484;2023-05-08T09:50:00;94454.63;;;18.70;100.00
39739;BME280;25422;48.286;8.484;2023-05-08T09:52:30;94454.41;;;18.40;100.00
39739;BME280;25422;48.286;8.484;2023-05-08T09:55:01;94458.16;;;19.72;100.00
39739;BME280;25422;48.286;8.484;2023-05-08T09:57:28;94454.09;;;19.69;100.00
39739;BME280;25422;48.286;8.484;2023-05-08T10:02:32;94454.44;;;18.33;100.00
39739;BME280;25422;48.286;8.484;2023-05-08T10:04:58;94458.06;;;17.80;100.00
39739;BME280;25422;48.286;8.484;2023-05-08T10:07:30;94459.25;;;17.98;100.00
39739;BME280;25422;48.286;8.484;2023-05-08T10:09:57;94459.25;;;17.84;100.00
39739;BME280;25422;48.286;8.484;2023-05-08T10:12:25;94451.16;;;17.52;100.00
39739;BME280;25422;48.286;8.484;2023-05-08T10:14:50;94463.19;;;16.95;100.00
39739;BME280;25422;48.286;8.484;2023-05-08T10:17:19;94465.06;;;16.32;100.00
39739;BME280;25422;48.286;8.484;2023-05-08T10:19:54;94467.66;;;16.19;100.00
39739;BME280;25422;48.286;8.484;2023-05-08T10:22:24;94465.03;;;15.84;100.00
39739;BME280;25422;48.286;8.484;2023-05-08T10:24:53;94470.22;;;15.71;100.00
39739;BME280;25422;48.286;8.484;2023-05-08T10:27:22;94464.75;;;15.72;100.00
39739;BME280;25422;48.286;8.484;2023-05-08T10:29:55;94463.03;;;15.58;100.00
39739;BME280;25422;48.286;8.484;2023-05-08T10:32:24;94463.84;;;15.58;100.00
39739;BME280;25422;48.286;8.484;2023-05-08T10:34:57;94468.56;;;15.63;100.00
39739;BME280;25422;48.286;8.484;2023-05-08T10:37:23;94456.75;;;15.94;100.00
39739;BME280;25422;48.286;8.484;2023-05-08T10:39:50;94461.28;;;16.00;100.00
39739;BME280;25422;48.286;8.484;2023-05-08T10:42:18;94463.38;;;16.18;100.00
39739;BME280;25422;48.286;8.484;2023-05-08T10:44:44;94461.78;;;16.24;100.00
39739;BME280;25422;48.286;8.484;2023-05-08T10:50:41;94451.78;;;17.55;100.00
39739;BME280;25422;48.286;8.484;2023-05-08T10:53:43;94456.69;;;17.04;100.00
39739;BME280;25422;48.286;8.484;2023-05-08T10:56:10;94458.09;;;17.60;100.00
39739;BME280;25422;48.286;8.484;2023-05-08T10:58:36;94453.28;;;19.25;100.00
39739;BME280;25422;48.286;8.484;2023-05-08T11:03:39;94449.94;;;18.73;100.00
39739;BME280;25422;48.286;8.484;2023-05-08T11:06:08;94457.34;;;19.28;100.00
39739;BME280;25422;48.286;8.484;2023-05-08T11:08:44;94453.34;;;19.18;100.00
39739;BME280;25422;48.286;8.484;2023-05-08T11:11:30;94452.63;;;18.66;100.00
39739;BME280;25422;48.286;8.484;2023-05-08T11:19:20;94460.06;;;17.78;100.00
39739;BME280;25422;48.286;8.484;2023-05-08T11:24:38;94458.94;;;17.21;100.00
39739;BME280;25422;48.286;8.484;2023-05-08T11:27:03;94452.81;;;17.33;100.00
39739;BME280;25422;48.286;8.484;2023-05-08T11:29:29;94450.97;;;17.61;100.00
39739;BME280;25422;48.286;8.484;2023-05-08T11:31:55;94445.50;;;17.02;100.00
39739;BME280;25422;48.286;8.484;2023-05-08T11:37:15;94444.47;;;16.90;100.00
39739;BME280;25422;48.286;8.484;2023-05-08T11:39:41;94445.50;;;17.29;100.00
39739;BME280;25422;48.286;8.484;2023-05-08T11:45:06;94442.94;;;18.01;100.00
39739;BME280;25422;48.286;8.484;2023-05-08T11:47:43;94456.84;;;17.76;100.00
39739;BME280;25422;48.286;8.484;2023-05-08T11:50:12;94441.41;;;17.53;100.00
39739;BME280;25422;48.286;8.484;2023-05-08T11:52:39;94438.94;;;17.72;100.00
39739;BME280;25422;48.286;8.484;2023-05-08T11:55:06;94444.66;;;17.55;100.00
39739;BME280;25422;48.286;8.484;2023-05-08T11:57:33;94448.56;;;17.46;100.00
39739;BME280;25422;48.286;8.484;2023-05-08T12:00:08;94452.59;;;17.55;100.00
39739;BME280;25422;48.286;8.484;2023-05-08T12:02:42;94451.16;;;17.66;100.00
39739;BME280;25422;48.286;8.484;2023-05-08T12:05:09;94457.19;;;18.00;100.00
39739;BME280;25422;48.286;8.484;2023-05-08T12:07:47;94463.34;;;17.94;100.00
39739;BME280;25422;48.286;8.484;2023-05-08T12:10:13;94444.88;;;17.47;100.00
39739;BME280;25422;48.286;8.484;2023-05-08T12:12:39;94450.19;;;17.07;100.00
39739;BME280;25422;48.286;8.484;2023-05-08T12:15:13;94455.19;;;16.61;100.00
39739;BME280;25422;48.286;8.484;2023-05-08T12:17:39;94452.44;;;17.10;100.00
39739;BME280;25422;48.286;8.484;2023-05-08T12:20:15;94451.81;;;17.34;100.00
39739;BME280;25422;48.286;8.484;2023-05-08T12:22:42;94460.34;;;17.03;100.00
39739;BME280;25422;48.286;8.484;2023-05-08T12:25:15;94461.53;;;16.87;100.00
39739;BME280;25422;48.286;8.484;2023-05-08T12:27:42;94463.78;;;16.83;100.00
39739;BME280;25422;48.286;8.484;2023-05-08T12:30:11;94465.38;;;16.64;100.00
39739;BME280;25422;48.286;8.484;2023-05-08T12:32:39;94460.22;;;16.43;100.00
39739;BME280;25422;48.286;8.484;2023-05-08T12:35:07;94477.31;;;16.54;100.00
39739;BME280;25422;48.286;8.484;2023-05-08T12:37:33;94473.13;;;16.79;100.00
39739;BME280;25422;48.286;8.484;2023-05-08T12:39:58;94471.47;;;16.72;100.00
39739;BME280;25422;48.286;8.484;2023-05-08T12:42:43;94486.06;;;16.61;100.00
39739;BME280;25422;48.286;8.484;2023-05-08T12:47:47;94481.13;;;15.32;100.00
39739;BME280;25422;48.286;8.484;2023-05-08T12:50:15;94470.53;;;15.04;100.00
39739;BME280;25422;48.286;8.484;2023-05-08T12:52:41;94481.28;;;15.03;100.00
39739;BME280;25422;48.286;8.484;2023-05-08T12:55:28;94479.59;;;14.73;100.00
39739;BME280;25422;48.286;8.484;2023-05-08T12:58:11;94486.81;;;14.49;100.00
39739;BME280;25422;48.286;8.484;2023-05-08T13:00:39;94481.97;;;14.31;100.00
39739;BME280;25422;48.286;8.484;2023-05-08T13:03:06;94481.81;;;14.18;100.00
39739;BME280;25422;48.286;8.484;2023-05-08T13:05:34;94476.28;;;13.98;100.00
39739;BME280;25422;48.286;8.484;2023-05-08T13:08:01;94483.47;;;13.89;100.00
39739;BME280;25422;48.286;8.484;2023-05-08T13:10:47;94485.38;;;13.80;100.00
39739;BME280;25422;48.286;8.484;2023-05-08T13:13:14;94488.19;;;13.64;100.00
39739;BME280;25422;48.286;8.484;2023-05-08T13:15:40;94482.09;;;13.48;100.00
39739;BME280;25422;48.286;8.484;2023-05-08T13:18:05;94479.91;;;13.37;100.00
39739;BME280;25422;48.286;8.484;2023-05-08T13:20:33;94478.97;;;13.30;100.00
39739;BME280;25422;48.286;8.484;2023-05-08T13:22:58;94480.38;;;13.41;100.00
39739;BME280;25422;48.286;8.484;2023-05-08T13:25:23;94478.56;;;13.56;100.00
39739;BME280;25422;48.286;8.484;2023-05-08T13:27:49;94476.59;;;13.58;100.00
39739;BME280;25422;48.286;8.484;2023-05-08T13:30:15;94475.22;;;13.62;100.00
39739;BME280;25422;48.286;8.484;2023-05-08T13:32:40;94478.75;;;13.85;100.00
39739;BME280;25422;48.286;8.484;2023-05-08T13:35:07;94468.50;;;13.75;100.00
39739;BME280;25422;48.286;8.484;2023-05-08T13:37:49;94466.59;;;13.83;100.00
39739;BME280;25422;48.286;8.484;2023-05-08T13:40:18;94473.22;;;13.79;100.00
39739;BME280;25422;48.286;8.484;2023-05-08T13:42:43;94467.03;;;14.02;100.00